Time;durP1;ratioP1;P1;durP2;ratioP2;P2;SDS_P1;SDS_P2;PMS_P1;PMS_P2;Temp;Humidity;BMP_temperature;BMP_pressure;BME280_temperature;BME280_humidity;BME280_pressure;Samples;Min_cycle;Max_cycle;Signal;HPM_P1;HPM_P2
2021/10/10 00:00:56;;;;;;;11.55;5.10;;;;;;;;;;4890846;28;20517;-80
2021/10/10 00:03:26;;;;;;;10.27;4.55;;;;;;;;;;4957097;28;20045;-81
2021/10/10 00:05:54;;;;;;;9.68;4.55;;;;;;;;;;4958088;28;20072;-80
2021/10/10 00:08:23;;;;;;;12.50;4.47;;;;;;;;;;4961234;28;20099;-80
2021/10/10 00:10:52;;;;;;;10.82;4.47;;;;;;;;;;4967843;28;20046;-80
2021/10/10 00:13:21;;;;;;;10.05;4.50;;;;;;;;;;4953359;28;20421;-80
2021/10/10 00:15:50;;;;;;;11.43;4.10;;;;;;;;;;4955725;28;20039;-81
2021/10/10 00:18:19;;;;;;;11.63;4.22;;;;;;;;;;4960244;28;20042;-80
2021/10/10 00:20:48;;;;;;;11.85;4.00;;;;;;;;;;4967651;28;20737;-83
2021/10/10 00:23:18;;;;;;;11.52;3.17;;;;;;;;;;4949580;28;20407;-81
2021/10/10 00:25:48;;;;;;;9.15;3.60;;;;;;;;;;4966669;28;20524;-81
2021/10/10 00:28:18;;;;;;;12.55;3.50;;;;;;;;;;4939516;28;20034;-81
2021/10/10 00:30:47;;;;;;;9.68;3.58;;;;;;;;;;4962337;28;20038;-81
2021/10/10 00:33:13;;;;;;;10.10;3.50;;;;;;;;;;4792555;28;20035;-80
2021/10/10 00:35:41;;;;;;;9.82;3.95;;;;;;;;;;4780998;28;21097;-80
2021/10/10 00:38:08;;;;;;;10.07;3.80;;;;;;;;;;4762934;28;20489;-81
2021/10/10 00:40:35;;;;;;;13.05;3.78;;;;;;;;;;4780621;28;20781;-81
2021/10/10 00:43:02;;;;;;;9.60;3.42;;;;;;;;;;4781076;28;20053;-80
2021/10/10 00:45:29;;;;;;;9.68;3.88;;;;;;;;;;4756656;28;20065;-80
2021/10/10 00:47:57;;;;;;;11.30;3.50;;;;;;;;;;4756592;28;20034;-81
2021/10/10 00:50:27;;;;;;;12.45;3.53;;;;;;;;;;4783146;28;20608;-79
2021/10/10 00:52:53;;;;;;;8.50;3.22;;;;;;;;;;4773195;28;20068;-80
2021/10/10 00:55:23;;;;;;;9.15;3.17;;;;;;;;;;4761597;28;20041;-79
2021/10/10 00:57:52;;;;;;;11.43;3.22;;;;;;;;;;4756079;28;20034;-80
2021/10/10 01:00:23;;;;;;;12.40;3.00;;;;;;;;;;4764553;28;20050;-80
2021/10/10 01:02:55;;;;;;;8.85;3.15;;;;;;;;;;4763329;28;20053;-80
2021/10/10 01:05:32;;;;;;;9.05;2.83;;;;;;;;;;4774161;28;20043;-81
2021/10/10 01:08:00;;;;;;;8.20;2.70;;;;;;;;;;4770759;28;20049;-81
2021/10/10 01:10:49;;;;;;;9.02;3.00;;;;;;;;;;4770447;28;20046;-82
2021/10/10 01:13:16;;;;;;;8.13;2.90;;;;;;;;;;4756038;28;21492;-80
2021/10/10 01:15:43;;;;;;;9.43;3.15;;;;;;;;;;4763070;28;20046;-81
2021/10/10 01:18:13;;;;;;;9.80;3.28;;;;;;;;;;4772579;28;20868;-80
2021/10/10 01:20:46;;;;;;;9.93;3.10;;;;;;;;;;4764467;28;20837;-80
2021/10/10 01:23:15;;;;;;;9.77;3.13;;;;;;;;;;4758861;28;20096;-80
2021/10/10 01:25:43;;;;;;;7.97;3.10;;;;;;;;;;4755072;28;20046;-80
2021/10/10 01:28:10;;;;;;;8.80;3.00;;;;;;;;;;4730019;28;20049;-79
2021/10/10 01:30:43;;;;;;;10.48;3.08;;;;;;;;;;4772035;28;20038;-79
2021/10/10 01:33:11;;;;;;;8.48;3.30;;;;;;;;;;4784443;28;20060;-80
2021/10/10 01:35:39;;;;;;;8.70;3.10;;;;;;;;;;4787234;28;20038;-79
2021/10/10 01:38:06;;;;;;;11.38;3.25;;;;;;;;;;4771002;28;21386;-81
2021/10/10 01:40:34;;;;;;;8.73;2.97;;;;;;;;;;4764574;28;20160;-82
2021/10/10 01:43:06;;;;;;;9.52;3.22;;;;;;;;;;4788940;28;20042;-80
2021/10/10 01:45:35;;;;;;;9.00;3.33;;;;;;;;;;4763161;28;20143;-79
2021/10/10 01:48:02;;;;;;;11.30;3.55;;;;;;;;;;4782278;28;20065;-80
2021/10/10 01:50:37;;;;;;;12.48;3.22;;;;;;;;;;4778659;28;20044;-80
2021/10/10 01:53:03;;;;;;;9.95;3.40;;;;;;;;;;4764052;28;21089;-79
2021/10/10 01:55:31;;;;;;;9.85;3.22;;;;;;;;;;4759672;28;20034;-79
2021/10/10 01:58:00;;;;;;;10.93;3.28;;;;;;;;;;4773292;28;20042;-79
2021/10/10 02:00:27;;;;;;;11.15;4.10;;;;;;;;;;4770767;28;20069;-79
2021/10/10 02:02:53;;;;;;;11.85;3.70;;;;;;;;;;4753374;28;20190;-81
2021/10/10 02:05:20;;;;;;;10.95;3.30;;;;;;;;;;4774438;28;20030;-81
2021/10/10 02:07:48;;;;;;;11.23;3.28;;;;;;;;;;4765994;28;20035;-81
2021/10/10 02:10:15;;;;;;;10.13;3.00;;;;;;;;;;4760173;28;20050;-80
2021/10/10 02:12:42;;;;;;;11.35;3.20;;;;;;;;;;4737142;28;20041;-80
2021/10/10 02:15:10;;;;;;;9.90;3.47;;;;;;;;;;4732477;28;20075;-80
2021/10/10 02:17:37;;;;;;;10.30;3.30;;;;;;;;;;4738445;28;20087;-79
2021/10/10 02:20:04;;;;;;;9.38;3.30;;;;;;;;;;4746862;28;20069;-82
2021/10/10 02:22:31;;;;;;;9.55;3.28;;;;;;;;;;4732378;28;20042;-82
2021/10/10 02:24:59;;;;;;;9.13;3.13;;;;;;;;;;4752223;28;20435;-80
2021/10/10 02:27:25;;;;;;;10.18;3.10;;;;;;;;;;4728543;28;20054;-79
2021/10/10 02:29:53;;;;;;;10.80;3.00;;;;;;;;;;4728050;28;20062;-81
2021/10/10 02:32:21;;;;;;;7.93;2.80;;;;;;;;;;4750983;28;20037;-79
2021/10/10 02:34:53;;;;;;;10.43;3.22;;;;;;;;;;4754199;28;20051;-80
2021/10/10 02:37:22;;;;;;;9.40;2.75;;;;;;;;;;4737195;28;20042;-80
2021/10/10 02:39:49;;;;;;;7.88;2.85;;;;;;;;;;4752803;28;20043;-80
2021/10/10 02:42:16;;;;;;;8.85;3.00;;;;;;;;;;4755473;28;20035;-82
2021/10/10 02:44:44;;;;;;;7.60;3.00;;;;;;;;;;4736122;28;20758;-81
2021/10/10 02:47:12;;;;;;;6.60;2.55;;;;;;;;;;4743609;28;20050;-80
2021/10/10 02:49:38;;;;;;;10.00;2.85;;;;;;;;;;4737818;28;20782;-80
2021/10/10 02:52:05;;;;;;;8.73;3.00;;;;;;;;;;4738532;28;20057;-80
2021/10/10 02:54:32;;;;;;;8.13;2.85;;;;;;;;;;4757270;28;20035;-79
2021/10/10 02:56:58;;;;;;;7.65;2.53;;;;;;;;;;4738013;28;20101;-79
2021/10/10 02:59:28;;;;;;;;;;;;;;;;;;4741434;28;20045;-77
2021/10/10 03:01:58;;;;;;;10.52;3.00;;;;;;;;;;4752927;28;19922;-82
2021/10/10 03:04:25;;;;;;;8.95;3.00;;;;;;;;;;4735552;28;20185;-81
2021/10/10 03:06:53;;;;;;;9.07;3.13;;;;;;;;;;4757539;28;21086;-80
2021/10/10 03:09:19;;;;;;;12.85;3.15;;;;;;;;;;4751771;28;20092;-79
2021/10/10 03:11:48;;;;;;;10.07;2.83;;;;;;;;;;4769564;28;21421;-81
2021/10/10 03:14:14;;;;;;;10.95;3.03;;;;;;;;;;4778683;28;20037;-81
2021/10/10 03:16:41;;;;;;;8.00;2.70;;;;;;;;;;4756023;28;20125;-81
2021/10/10 03:19:09;;;;;;;8.23;2.95;;;;;;;;;;4777807;28;20078;-81
2021/10/10 03:21:36;;;;;;;9.38;2.85;;;;;;;;;;4775577;28;20215;-79
2021/10/10 03:24:03;;;;;;;8.48;3.22;;;;;;;;;;4774536;28;20034;-79
2021/10/10 03:26:31;;;;;;;6.95;2.88;;;;;;;;;;4773231;28;20073;-79
2021/10/10 03:28:58;;;;;;;8.93;2.90;;;;;;;;;;4777760;28;20038;-81
2021/10/10 03:31:26;;;;;;;7.57;3.05;;;;;;;;;;4785059;28;20062;-80
2021/10/10 03:33:57;;;;;;;9.65;2.75;;;;;;;;;;4785162;28;20124;-80
2021/10/10 03:36:25;;;;;;;10.73;2.78;;;;;;;;;;4764623;28;20800;-79
2021/10/10 03:38:55;;;;;;;10.27;2.60;;;;;;;;;;4792585;28;20057;-80
2021/10/10 03:41:23;;;;;;;9.27;3.00;;;;;;;;;;4784369;28;22381;-79
2021/10/10 03:43:52;;;;;;;9.10;3.15;;;;;;;;;;4783335;28;20053;-82
2021/10/10 03:46:18;;;;;;;7.90;2.90;;;;;;;;;;4795421;28;20046;-82
2021/10/10 03:48:45;;;;;;;11.93;2.83;;;;;;;;;;4791657;28;20042;-80
2021/10/10 03:51:13;;;;;;;13.27;3.42;;;;;;;;;;4774035;28;21809;-79
2021/10/10 03:56:34;;;;;;;9.57;2.85;;;;;;;;;;4734626;28;20937;-80
2021/10/10 03:59:01;;;;;;;9.15;2.72;;;;;;;;;;4760153;28;20061;-80
2021/10/10 04:01:39;;;;;;;9.57;2.92;;;;;;;;;;4780974;28;21449;-79
2021/10/10 04:04:06;;;;;;;9.10;2.85;;;;;;;;;;4778551;28;20057;-79
2021/10/10 04:06:35;;;;;;;9.02;3.10;;;;;;;;;;4776021;28;20073;-80
2021/10/10 04:09:02;;;;;;;7.82;2.78;;;;;;;;;;4781386;28;20058;-80
2021/10/10 04:11:31;;;;;;;7.47;2.83;;;;;;;;;;4775916;28;20050;-82
2021/10/10 04:13:58;;;;;;;9.25;3.05;;;;;;;;;;4779598;28;20833;-79
2021/10/10 04:16:24;;;;;;;9.73;2.80;;;;;;;;;;4765311;28;20039;-82
2021/10/10 04:18:52;;;;;;;8.75;2.90;;;;;;;;;;4777134;28;20121;-80
2021/10/10 04:21:19;;;;;;;8.27;3.05;;;;;;;;;;4758790;28;20049;-81
2021/10/10 04:23:47;;;;;;;9.07;2.72;;;;;;;;;;4754935;28;20038;-79
2021/10/10 04:26:30;;;;;;;8.07;2.75;;;;;;;;;;4802432;23;20730;-79
2021/10/10 04:29:09;;;;;;;8.38;2.50;;;;;;;;;;4784380;28;21713;-77
2021/10/10 04:31:40;;;;;;;7.60;2.65;;;;;;;;;;4784125;28;20080;-79
2021/10/10 04:34:07;;;;;;;10.05;3.00;;;;;;;;;;4790030;28;20768;-79
2021/10/10 04:36:37;;;;;;;10.43;2.95;;;;;;;;;;4778375;28;20030;-80
2021/10/10 04:39:06;;;;;;;10.57;3.25;;;;;;;;;;4776811;28;20777;-80
2021/10/10 04:41:34;;;;;;;9.00;3.00;;;;;;;;;;4772065;28;21408;-79
2021/10/10 04:44:01;;;;;;;7.82;2.80;;;;;;;;;;4784074;28;20034;-78
2021/10/10 04:46:27;;;;;;;8.65;2.75;;;;;;;;;;4761957;28;20042;-77
2021/10/10 04:48:54;;;;;;;8.77;2.80;;;;;;;;;;4777021;28;20749;-77
2021/10/10 04:51:21;;;;;;;9.32;3.00;;;;;;;;;;4776684;28;21514;-77
2021/10/10 04:53:53;;;;;;;10.00;3.00;;;;;;;;;;4780468;28;20041;-78
2021/10/10 04:56:33;;;;;;;10.52;2.90;;;;;;;;;;4759922;28;20057;-77
2021/10/10 04:59:06;;;;;;;11.25;2.70;;;;;;;;;;4782763;28;20798;-77
2021/10/10 05:01:33;;;;;;;9.68;3.10;;;;;;;;;;4767824;28;21651;-79
2021/10/10 05:03:59;;;;;;;12.85;3.35;;;;;;;;;;4763115;28;20763;-78
2021/10/10 05:06:26;;;;;;;9.80;2.88;;;;;;;;;;4766199;28;20068;-78
2021/10/10 05:08:52;;;;;;;9.27;2.60;;;;;;;;;;4775470;28;20843;-77
2021/10/10 05:11:32;;;;;;;10.95;3.10;;;;;;;;;;4770395;28;20104;-78
2021/10/10 05:14:02;;;;;;;8.48;2.65;;;;;;;;;;4774484;28;20760;-77
2021/10/10 05:16:48;;;;;;;;;;;;;;;;;;;;;
2021/10/10 05:19:21;;;;;;;9.15;2.85;;;;;;;;;;4792263;28;20731;-77
2021/10/10 05:22:01;;;;;;;;;;;;;;;;;;;;;
2021/10/10 05:24:30;;;;;;;8.65;3.00;;;;;;;;;;4790456;28;22553;-79
2021/10/10 05:27:03;;;;;;;12.32;2.97;;;;;;;;;;4776202;28;20095;-79
2021/10/10 05:29:32;;;;;;;10.25;2.90;;;;;;;;;;4790925;28;20761;-77
2021/10/10 05:31:58;;;;;;;7.97;2.88;;;;;;;;;;4793005;28;20107;-75
2021/10/10 05:34:35;;;;;;;9.23;2.67;;;;;;;;;;4766073;28;20109;-77
2021/10/10 05:37:29;;;;;;;9.27;2.75;;;;;;;;;;4776582;28;20052;-78
2021/10/10 05:40:23;;;;;;;8.88;2.70;;;;;;;;;;4758611;28;22241;-80
2021/10/10 05:42:51;;;;;;;8.82;2.67;;;;;;;;;;4781058;28;20209;-77
2021/10/10 05:45:22;;;;;;;9.70;2.67;;;;;;;;;;4792290;28;22283;-79
2021/10/10 05:47:48;;;;;;;10.68;2.88;;;;;;;;;;4776147;28;21133;-78
2021/10/10 05:50:18;;;;;;;10.15;3.00;;;;;;;;;;4795689;28;20753;-77
2021/10/10 05:52:45;;;;;;;9.82;2.47;;;;;;;;;;4793488;28;20076;-77
2021/10/10 05:55:25;;;;;;;8.77;2.60;;;;;;;;;;4776766;28;20581;-79
2021/10/10 05:58:02;;;;;;;10.32;2.50;;;;;;;;;;4769405;28;20046;-79
2021/10/10 06:00:29;;;;;;;9.27;2.50;;;;;;;;;;4775214;28;22838;-78
2021/10/10 06:02:59;;;;;;;11.15;3.25;;;;;;;;;;4797493;28;20081;-77
2021/10/10 06:05:43;;;;;;;;;;;;;;;;;;;;;
2021/10/10 06:08:09;;;;;;;8.95;2.33;;;;;;;;;;4783335;28;20041;-79
2021/10/10 06:10:43;;;;;;;;;;;;;;;;;;4777758;28;20750;-78
2021/10/10 06:13:13;;;;;;;8.77;2.72;;;;;;;;;;4776944;28;19960;-77
2021/10/10 06:15:41;;;;;;;10.02;3.00;;;;;;;;;;4783445;28;20046;-77
2021/10/10 06:18:14;;;;;;;8.30;3.08;;;;;;;;;;4807236;28;20030;-77
2021/10/10 06:20:44;;;;;;;9.55;2.90;;;;;;;;;;4793247;28;20065;-77
2021/10/10 06:23:11;;;;;;;11.43;2.75;;;;;;;;;;4779158;28;20176;-76
2021/10/10 06:25:40;;;;;;;9.02;2.47;;;;;;;;;;4778101;28;22099;-80
2021/10/10 06:28:11;;;;;;;7.55;2.50;;;;;;;;;;4771153;28;20085;-77
2021/10/10 06:30:38;;;;;;;8.63;2.53;;;;;;;;;;4820590;28;20038;-77
2021/10/10 06:33:13;;;;;;;9.52;2.72;;;;;;;;;;4810015;28;20118;-77
2021/10/10 06:35:43;;;;;;;8.20;2.50;;;;;;;;;;4779839;28;21609;-77
2021/10/10 06:38:20;;;;;;;7.60;2.25;;;;;;;;;;4775561;28;20049;-76
2021/10/10 06:41:05;;;;;;;9.00;2.40;;;;;;;;;;4774342;28;20797;-77
2021/10/10 06:43:42;;;;;;;10.40;2.50;;;;;;;;;;4795597;28;20458;-78
2021/10/10 06:46:09;;;;;;;7.95;2.72;;;;;;;;;;4778752;28;21368;-79
2021/10/10 06:48:45;;;;;;;6.47;2.28;;;;;;;;;;4774974;28;20040;-77
2021/10/10 06:51:32;;;;;;;10.27;2.42;;;;;;;;;;4775489;28;20040;-79
2021/10/10 06:54:00;;;;;;;9.00;2.17;;;;;;;;;;4702738;28;21034;-77
2021/10/10 06:56:40;;;;;;;7.53;2.20;;;;;;;;;;4703520;28;20113;-76
2021/10/10 06:59:07;;;;;;;7.85;2.60;;;;;;;;;;4732339;28;20039;-76
2021/10/10 07:01:36;;;;;;;7.90;2.20;;;;;;;;;;4730385;28;20189;-77
2021/10/10 07:04:31;;;;;;;7.45;2.40;;;;;;;;;;4728548;28;20043;-77
2021/10/10 07:07:04;;;;;;;14.27;2.40;;;;;;;;;;4721711;28;20099;-77
2021/10/10 07:09:34;;;;;;;8.02;2.35;;;;;;;;;;4717178;28;20119;-78
2021/10/10 07:12:03;;;;;;;8.65;2.53;;;;;;;;;;4731343;28;22327;-77
2021/10/10 07:14:31;;;;;;;6.55;2.42;;;;;;;;;;4728032;28;20063;-78
2021/10/10 07:17:16;;;;;;;7.93;2.58;;;;;;;;;;4723647;28;20049;-78
2021/10/10 07:19:52;;;;;;;7.57;2.10;;;;;;;;;;4690429;28;20052;-78
2021/10/10 07:22:30;;;;;;;11.13;2.38;;;;;;;;;;4724200;28;22896;-78
2021/10/10 07:25:16;;;;;;;8.40;2.40;;;;;;;;;;4756373;28;20172;-79
2021/10/10 07:30:51;;;;;;;;;;;;;;;;;;;;;
2021/10/10 07:33:30;;;;;;;9.82;2.20;;;;;;;;;;4815648;28;20045;-86
2021/10/10 07:36:21;;;;;;;6.93;1.63;;;;;;;;;;4815842;28;21499;-85
2021/10/10 07:38:59;;;;;;;7.63;2.03;;;;;;;;;;4816626;28;20646;-88
2021/10/10 07:41:36;;;;;;;6.13;2.00;;;;;;;;;;4795803;28;20043;-85
2021/10/10 07:44:23;;;;;;;10.18;2.97;;;;;;;;;;4812895;28;20042;-85
2021/10/10 07:49:45;;;;;;;10.07;2.35;;;;;;;;;;4808077;28;20171;-85
2021/10/10 07:52:12;;;;;;;8.90;2.70;;;;;;;;;;4819554;28;21824;-84
2021/10/10 07:54:42;;;;;;;7.18;2.15;;;;;;;;;;4800986;28;20101;-84
2021/10/10 07:57:13;;;;;;;9.32;2.00;;;;;;;;;;4784565;28;20038;-83
2021/10/10 07:59:40;;;;;;;7.43;2.03;;;;;;;;;;4763564;23;20698;-80
2021/10/10 08:02:06;;;;;;;7.15;1.80;;;;;;;;;;4754346;28;20038;-79
2021/10/10 08:04:33;;;;;;;7.88;2.20;;;;;;;;;;4795626;28;20034;-81
2021/10/10 08:06:59;;;;;;;8.52;1.92;;;;;;;;;;4835099;28;20994;-81
2021/10/10 08:09:25;;;;;;;8.05;1.98;;;;;;;;;;4813472;28;20041;-81
2021/10/10 08:11:52;;;;;;;8.32;2.40;;;;;;;;;;4845304;28;20031;-80
2021/10/10 08:14:19;;;;;;;9.23;2.35;;;;;;;;;;4829513;28;20126;-80
2021/10/10 08:16:45;;;;;;;10.60;2.33;;;;;;;;;;4838618;28;21141;-80
2021/10/10 08:19:12;;;;;;;8.13;2.20;;;;;;;;;;4781948;28;20030;-82
2021/10/10 08:21:38;;;;;;;6.95;1.98;;;;;;;;;;4836861;28;20030;-82
2021/10/10 08:24:05;;;;;;;10.80;2.10;;;;;;;;;;4771756;28;20031;-79
2021/10/10 08:26:33;;;;;;;8.52;2.10;;;;;;;;;;4850221;28;20563;-83
2021/10/10 08:29:00;;;;;;;8.07;2.03;;;;;;;;;;4842958;28;20027;-82
2021/10/10 08:31:26;;;;;;;9.27;2.13;;;;;;;;;;4901560;28;20141;-81
2021/10/10 08:33:53;;;;;;;9.13;1.90;;;;;;;;;;4842540;28;20026;-81
2021/10/10 08:36:19;;;;;;;6.40;1.85;;;;;;;;;;4871627;28;22625;-81
2021/10/10 08:38:46;;;;;;;8.55;2.63;;;;;;;;;;4966048;28;20034;-82
2021/10/10 08:41:16;;;;;;;6.35;1.85;;;;;;;;;;4948112;28;20038;-80
2021/10/10 08:43:46;;;;;;;8.70;2.05;;;;;;;;;;4956348;28;20030;-80
2021/10/10 08:46:21;;;;;;;7.55;2.22;;;;;;;;;;4970250;28;20667;-79
2021/10/10 08:48:47;;;;;;;6.18;1.60;;;;;;;;;;4980272;28;20038;-80
2021/10/10 08:51:13;;;;;;;8.23;1.67;;;;;;;;;;4961479;28;21561;-81
2021/10/10 08:53:39;;;;;;;10.30;2.13;;;;;;;;;;4958812;28;20649;-81
2021/10/10 08:56:06;;;;;;;6.72;1.67;;;;;;;;;;4965859;28;20089;-80
2021/10/10 08:58:37;;;;;;;7.13;1.88;;;;;;;;;;4956523;28;20073;-80
2021/10/10 09:01:12;;;;;;;6.93;1.77;;;;;;;;;;4902818;28;20145;-81
2021/10/10 09:03:38;;;;;;;7.87;2.10;;;;;;;;;;4785699;28;21193;-80
2021/10/10 09:06:05;;;;;;;6.88;2.13;;;;;;;;;;4783338;28;20026;-80
2021/10/10 09:08:33;;;;;;;7.60;1.70;;;;;;;;;;4793273;28;20043;-80
2021/10/10 09:11:00;;;;;;;7.30;2.10;;;;;;;;;;4774201;28;20765;-80
2021/10/10 09:13:34;;;;;;;6.60;1.95;;;;;;;;;;4797002;28;20030;-80
2021/10/10 09:16:00;;;;;;;8.65;1.92;;;;;;;;;;4802420;28;20462;-83
2021/10/10 09:18:54;;;;;;;10.15;2.08;;;;;;;;;;4760270;28;20160;-79
2021/10/10 09:21:35;;;;;;;9.70;1.98;;;;;;;;;;4776892;28;20049;-80
2021/10/10 09:24:02;;;;;;;7.18;1.95;;;;;;;;;;4781507;28;20042;-80
2021/10/10 09:26:41;;;;;;;7.95;1.73;;;;;;;;;;4779195;28;20728;-81
2021/10/10 09:29:09;;;;;;;6.93;2.10;;;;;;;;;;4787353;28;20156;-81
2021/10/10 09:31:39;;;;;;;8.10;2.10;;;;;;;;;;4775888;28;20023;-80
2021/10/10 09:34:08;;;;;;;6.97;1.92;;;;;;;;;;4780582;28;20104;-81
2021/10/10 09:36:35;;;;;;;6.80;1.92;;;;;;;;;;4783103;28;20026;-81
2021/10/10 09:39:07;;;;;;;8.48;2.17;;;;;;;;;;4782524;28;20141;-79
2021/10/10 09:41:40;;;;;;;7.78;1.90;;;;;;;;;;4790875;28;20186;-80
2021/10/10 09:44:11;;;;;;;4.55;1.40;;;;;;;;;;4855416;28;20050;-81
2021/10/10 09:46:40;;;;;;;7.40;2.08;;;;;;;;;;4966172;28;20658;-81
2021/10/10 09:49:21;;;;;;;8.07;2.22;;;;;;;;;;4946744;28;20040;-80
2021/10/10 09:51:49;;;;;;;6.68;1.65;;;;;;;;;;4961747;28;20026;-80
2021/10/10 09:54:24;;;;;;;7.28;1.70;;;;;;;;;;4958946;28;20081;-80
2021/10/10 09:57:08;;;;;;;9.38;2.03;;;;;;;;;;4963730;28;20062;-80
2021/10/10 09:59:36;;;;;;;6.65;1.80;;;;;;;;;;4961093;28;20038;-80
2021/10/10 10:02:04;;;;;;;7.50;2.17;;;;;;;;;;4962297;28;20098;-81
2021/10/10 10:04:50;;;;;;;7.95;1.88;;;;;;;;;;4955545;28;20564;-81
2021/10/10 10:07:22;;;;;;;11.65;2.45;;;;;;;;;;4954656;28;20041;-81
2021/10/10 10:09:52;;;;;;;6.30;1.80;;;;;;;;;;4942288;28;20085;-81
2021/10/10 10:12:23;;;;;;;8.90;2.28;;;;;;;;;;4958675;28;20023;-81
2021/10/10 10:14:56;;;;;;;10.52;2.10;;;;;;;;;;4963996;28;20060;-81
2021/10/10 10:17:24;;;;;;;7.30;1.80;;;;;;;;;;4959805;28;20061;-82
2021/10/10 10:19:50;;;;;;;9.13;2.10;;;;;;;;;;4971844;28;20094;-80
2021/10/10 10:22:19;;;;;;;9.85;2.20;;;;;;;;;;4965432;28;20057;-80
2021/10/10 10:24:47;;;;;;;26.25;16.67;;;;;;;;;;4966982;28;20894;-80
2021/10/10 10:27:14;;;;;;;30.52;21.38;;;;;;;;;;4965360;28;20125;-80
2021/10/10 10:29:43;;;;;;;16.38;8.38;;;;;;;;;;4964814;28;21146;-80
2021/10/10 10:32:10;;;;;;;17.90;10.40;;;;;;;;;;4960624;28;20041;-83
2021/10/10 10:34:37;;;;;;;14.35;5.68;;;;;;;;;;4976099;28;20308;-82
2021/10/10 10:37:11;;;;;;;14.45;7.85;;;;;;;;;;4927973;28;20046;-82
2021/10/10 10:39:42;;;;;;;10.93;5.40;;;;;;;;;;4842270;28;20173;-81
2021/10/10 10:42:09;;;;;;;19.20;12.38;;;;;;;;;;4806949;28;20054;-83
2021/10/10 10:44:45;;;;;;;10.13;5.55;;;;;;;;;;4793039;28;20371;-80
2021/10/10 10:47:22;;;;;;;10.65;4.57;;;;;;;;;;4783334;28;20078;-81
2021/10/10 10:49:56;;;;;;;17.27;9.10;;;;;;;;;;4902326;28;20136;-82
2021/10/10 10:52:28;;;;;;;23.58;16.45;;;;;;;;;;4848614;28;20124;-82
2021/10/10 10:54:56;;;;;;;14.57;9.25;;;;;;;;;;4785648;28;20077;-80
2021/10/10 11:00:39;;;;;;;9.27;4.32;;;;;;;;;;4782369;28;20054;-81
2021/10/10 11:03:25;;;;;;;12.52;5.68;;;;;;;;;;4775702;28;20037;-81
2021/10/10 11:06:07;;;;;;;8.95;3.08;;;;;;;;;;4735681;28;20050;-82
2021/10/10 11:08:41;;;;;;;8.85;3.08;;;;;;;;;;4775990;28;20030;-83
2021/10/10 11:11:36;;;;;;;9.50;2.78;;;;;;;;;;4769320;28;20763;-81
2021/10/10 11:14:32;;;;;;;8.38;2.88;;;;;;;;;;4776829;28;22707;-82
2021/10/10 11:17:11;;;;;;;8.00;2.80;;;;;;;;;;4766099;28;22565;-80
2021/10/10 11:19:42;;;;;;;8.35;2.70;;;;;;;;;;4768747;28;20336;-82
2021/10/10 11:22:12;;;;;;;8.25;2.55;;;;;;;;;;4741469;28;20035;-80
2021/10/10 11:24:50;;;;;;;8.38;2.22;;;;;;;;;;4758788;28;21240;-82
2021/10/10 11:27:20;;;;;;;11.25;3.70;;;;;;;;;;4764403;28;20043;-82
2021/10/10 11:29:50;;;;;;;9.05;2.58;;;;;;;;;;4767724;28;20035;-81
2021/10/10 11:32:16;;;;;;;7.95;2.85;;;;;;;;;;4759265;28;20687;-80
2021/10/10 11:34:43;;;;;;;6.15;2.28;;;;;;;;;;4763860;28;20135;-82
2021/10/10 11:37:19;;;;;;;9.55;4.03;;;;;;;;;;4761897;28;20042;-79
2021/10/10 11:39:45;;;;;;;7.68;2.63;;;;;;;;;;4767682;28;20332;-81
2021/10/10 11:42:11;;;;;;;7.30;2.08;;;;;;;;;;4753845;28;20042;-79
2021/10/10 11:44:39;;;;;;;10.52;2.78;;;;;;;;;;4733424;28;20050;-80
2021/10/10 11:47:08;;;;;;;9.20;3.10;;;;;;;;;;4736024;28;20051;-83
2021/10/10 11:49:38;;;;;;;11.23;4.20;;;;;;;;;;4759449;28;21217;-80
2021/10/10 11:54:53;;;;;;;9.25;3.50;;;;;;;;;;4772393;28;20609;-81
2021/10/10 11:57:20;;;;;;;9.55;3.00;;;;;;;;;;4760819;28;20039;-80
2021/10/10 11:59:51;;;;;;;8.00;2.50;;;;;;;;;;4777079;28;20047;-81
2021/10/10 12:02:17;;;;;;;8.35;3.40;;;;;;;;;;4755704;28;20034;-81
2021/10/10 12:04:47;;;;;;;8.73;2.92;;;;;;;;;;4785333;28;20042;-81
2021/10/10 12:07:13;;;;;;;9.25;2.38;;;;;;;;;;4764942;28;20081;-81
2021/10/10 12:09:52;;;;;;;10.43;3.70;;;;;;;;;;4789440;28;20073;-81
2021/10/10 12:12:23;;;;;;;8.07;2.30;;;;;;;;;;4785247;28;20030;-80
2021/10/10 12:14:54;;;;;;;12.07;2.63;;;;;;;;;;4784881;28;20034;-81
2021/10/10 12:17:50;;;;;;;8.50;2.63;;;;;;;;;;4780336;28;20710;-82
2021/10/10 12:20:16;;;;;;;11.20;5.07;;;;;;;;;;4796273;28;21750;-82
2021/10/10 12:22:50;;;;;;;9.00;3.70;;;;;;;;;;4789440;28;21693;-82
2021/10/10 12:25:21;;;;;;;11.80;4.75;;;;;;;;;;4786212;28;20107;-82
2021/10/10 12:27:58;;;;;;;6.97;2.67;;;;;;;;;;4760175;28;21444;-81
2021/10/10 12:30:29;;;;;;;10.52;2.80;;;;;;;;;;4781270;28;20022;-80
2021/10/10 12:32:56;;;;;;;8.32;2.85;;;;;;;;;;4790755;28;20153;-81
2021/10/10 12:35:22;;;;;;;8.55;2.75;;;;;;;;;;4781157;28;20130;-80
2021/10/10 12:38:01;;;;;;;9.13;4.05;;;;;;;;;;4751738;28;20704;-81
2021/10/10 12:40:29;;;;;;;10.05;3.08;;;;;;;;;;4776563;28;20038;-81
2021/10/10 12:42:55;;;;;;;8.20;2.35;;;;;;;;;;4778699;28;20038;-81
2021/10/10 12:48:02;;;;;;;9.70;3.78;;;;;;;;;;4783796;28;20034;-80
2021/10/10 12:50:28;;;;;;;8.30;3.63;;;;;;;;;;4769954;28;20097;-80
2021/10/10 12:52:58;;;;;;;12.38;4.30;;;;;;;;;;4764937;28;20786;-80
2021/10/10 12:55:29;;;;;;;9.60;4.10;;;;;;;;;;4771063;28;20045;-80
2021/10/10 12:57:56;;;;;;;8.82;2.65;;;;;;;;;;4776804;28;20067;-80
2021/10/10 13:00:23;;;;;;;13.80;5.68;;;;;;;;;;4766805;28;20112;-80
2021/10/10 13:02:50;;;;;;;11.18;4.85;;;;;;;;;;4771652;28;22417;-81
2021/10/10 13:05:20;;;;;;;13.38;7.93;;;;;;;;;;4766321;28;20738;-79
2021/10/10 13:07:47;;;;;;;23.92;13.52;;;;;;;;;;4761121;28;20191;-79
2021/10/10 13:10:13;;;;;;;11.50;4.47;;;;;;;;;;4769893;28;20609;-82
2021/10/10 13:12:40;;;;;;;10.40;3.72;;;;;;;;;;4766407;28;20768;-80
2021/10/10 13:15:10;;;;;;;11.07;4.80;;;;;;;;;;4762041;28;20046;-80
2021/10/10 13:17:42;;;;;;;8.77;3.05;;;;;;;;;;4766108;28;20058;-79
2021/10/10 13:20:09;;;;;;;9.85;4.05;;;;;;;;;;4768116;28;20038;-79
2021/10/10 13:22:35;;;;;;;8.45;4.03;;;;;;;;;;4766010;28;20089;-80
2021/10/10 13:25:06;;;;;;;14.90;7.63;;;;;;;;;;4765755;28;20046;-80
2021/10/10 13:27:43;;;;;;;;;;;;;;;;;;;;;
2021/10/10 13:30:09;;;;;;;11.68;6.57;;;;;;;;;;4768979;28;20026;-81
2021/10/10 13:32:38;;;;;;;9.95;4.60;;;;;;;;;;4767119;28;20994;-81
2021/10/10 13:35:05;;;;;;;9.57;3.28;;;;;;;;;;4756398;28;21120;-81
2021/10/10 13:37:32;;;;;;;9.88;3.55;;;;;;;;;;4763199;28;20038;-80
2021/10/10 13:39:59;;;;;;;9.02;3.20;;;;;;;;;;4768377;28;20110;-80
2021/10/10 13:42:25;;;;;;;9.63;3.40;;;;;;;;;;4763101;28;21829;-80
2021/10/10 13:44:52;;;;;;;12.13;7.13;;;;;;;;;;4760630;28;20030;-80
2021/10/10 13:47:18;;;;;;;14.68;8.77;;;;;;;;;;4757783;28;20605;-79
2021/10/10 13:49:48;;;;;;;9.10;4.50;;;;;;;;;;4761173;28;20038;-80
2021/10/10 13:52:14;;;;;;;14.00;9.00;;;;;;;;;;4746275;28;20572;-81
2021/10/10 13:54:41;;;;;;;10.88;6.22;;;;;;;;;;4759918;28;20062;-82
2021/10/10 13:57:11;;;;;;;11.15;5.45;;;;;;;;;;4751312;28;20050;-80
2021/10/10 13:59:38;;;;;;;8.68;4.03;;;;;;;;;;4787873;28;20174;-82
2021/10/10 14:02:05;;;;;;;13.88;5.85;;;;;;;;;;4786713;28;20109;-80
2021/10/10 14:04:32;;;;;;;11.75;6.13;;;;;;;;;;4773113;28;21487;-80
2021/10/10 14:06:58;;;;;;;9.25;4.10;;;;;;;;;;4787745;28;20081;-80
2021/10/10 14:09:25;;;;;;;8.57;3.92;;;;;;;;;;4805150;28;20151;-80
2021/10/10 14:11:51;;;;;;;8.20;3.05;;;;;;;;;;4786629;28;20832;-80
2021/10/10 14:14:17;;;;;;;10.38;2.65;;;;;;;;;;4781028;28;20049;-79
2021/10/10 14:16:45;;;;;;;7.25;2.35;;;;;;;;;;4779015;28;20791;-80
2021/10/10 14:19:11;;;;;;;8.02;2.63;;;;;;;;;;4779476;28;20073;-82
2021/10/10 14:21:41;;;;;;;8.65;3.10;;;;;;;;;;4795599;28;20039;-80
2021/10/10 14:24:07;;;;;;;6.85;2.50;;;;;;;;;;4811771;28;20122;-80
2021/10/10 14:26:34;;;;;;;8.98;2.83;;;;;;;;;;4778490;28;20097;-82
2021/10/10 14:29:00;;;;;;;8.73;2.53;;;;;;;;;;4787301;28;20038;-81
2021/10/10 14:31:27;;;;;;;10.90;2.50;;;;;;;;;;4778286;28;21320;-82
2021/10/10 14:33:53;;;;;;;6.15;1.92;;;;;;;;;;4787192;28;20754;-81
2021/10/10 14:36:23;;;;;;;8.93;2.28;;;;;;;;;;4776880;28;20045;-81
2021/10/10 14:38:49;;;;;;;7.45;2.40;;;;;;;;;;4787012;28;20727;-83
2021/10/10 14:41:22;;;;;;;6.68;2.00;;;;;;;;;;4772243;28;20189;-81
2021/10/10 14:44:03;;;;;;;7.07;2.33;;;;;;;;;;4783914;28;20113;-81
2021/10/10 14:46:29;;;;;;;7.43;2.28;;;;;;;;;;4762351;28;20046;-82
2021/10/10 14:48:58;;;;;;;6.18;2.20;;;;;;;;;;4772228;28;20030;-80
2021/10/10 14:51:27;;;;;;;6.63;2.35;;;;;;;;;;4780582;28;20076;-80
2021/10/10 14:53:56;;;;;;;7.13;2.50;;;;;;;;;;4790012;28;20034;-82
2021/10/10 14:56:23;;;;;;;7.18;2.33;;;;;;;;;;4778157;28;20030;-80
2021/10/10 14:58:49;;;;;;;7.63;2.35;;;;;;;;;;4791275;28;20050;-80
2021/10/10 15:01:15;;;;;;;8.90;2.50;;;;;;;;;;4785148;28;20044;-80
2021/10/10 15:03:42;;;;;;;8.00;2.10;;;;;;;;;;4788493;28;20625;-80
2021/10/10 15:06:08;;;;;;;8.90;2.55;;;;;;;;;;4785985;28;20038;-81
2021/10/10 15:08:37;;;;;;;9.45;2.40;;;;;;;;;;4779435;28;20049;-80
2021/10/10 15:11:08;;;;;;;6.85;2.47;;;;;;;;;;4784400;28;20073;-80
2021/10/10 15:13:34;;;;;;;7.38;2.60;;;;;;;;;;4783410;28;20034;-81
2021/10/10 15:16:01;;;;;;;9.43;2.30;;;;;;;;;;4777506;28;20038;-80
2021/10/10 15:18:27;;;;;;;7.00;2.00;;;;;;;;;;4786369;28;20332;-81